Time;durP1;ratioP1;P1;durP2;ratioP2;P2;SDS_P1;SDS_P2;PMS_P1;PMS_P2;Temp;Humidity;BMP_temperature;BMP_pressure;BME280_temperature;BME280_humidity;BME280_pressure;Samples;Min_cycle;Max_cycle;Signal;HPM_P1;HPM_P2
2021/01/16 00:00:36;;;;;;;5.18;3.03;;;18.00;77.70;;;;;;5011642;28;20030;-75
2021/01/16 00:03:08;;;;;;;4.45;3.03;;;17.50;79.20;;;;;;5011485;28;20022;-76
2021/01/16 00:05:35;;;;;;;6.78;3.60;;;17.40;80.50;;;;;;5011325;28;20053;-74
2021/01/16 00:08:04;;;;;;;5.55;2.83;;;17.30;81.40;;;;;;5011537;28;20521;-71
2021/01/16 00:10:33;;;;;;;6.32;2.90;;;17.20;81.80;;;;;;5011403;28;20430;-74
2021/01/16 00:13:00;;;;;;;3.75;2.65;;;17.10;82.10;;;;;;5010959;28;20038;-76
2021/01/16 00:15:28;;;;;;;5.13;2.90;;;16.90;82.70;;;;;;5011569;28;20029;-75
2021/01/16 00:18:08;;;;;;;4.72;3.10;;;17.00;83.30;;;;;;5010722;28;20038;-75
2021/01/16 00:20:37;;;;;;;7.43;3.33;;;17.20;83.30;;;;;;5011544;28;20037;-73
2021/01/16 00:23:08;;;;;;;4.50;2.70;;;17.10;83.40;;;;;;5009902;28;20042;-73
2021/01/16 00:25:36;;;;;;;3.47;2.40;;;17.10;83.80;;;;;;5011243;28;20033;-72
2021/01/16 00:28:03;;;;;;;3.33;2.60;;;17.30;82.50;;;;;;4993985;28;20045;-74
2021/01/16 00:30:33;;;;;;;3.20;2.42;;;17.40;82.00;;;;;;5011235;28;20021;-75
2021/01/16 00:33:03;;;;;;;3.65;2.38;;;17.30;79.00;;;;;;5011161;28;20030;-74
2021/01/16 00:35:32;;;;;;;3.05;2.30;;;17.10;80.40;;;;;;4993587;28;20042;-73
2021/01/16 00:37:59;;;;;;;4.80;2.75;;;16.80;80.30;;;;;;5010453;28;20038;-74
2021/01/16 00:40:27;;;;;;;3.40;2.45;;;16.40;81.00;;;;;;5011238;28;20022;-72
2021/01/16 00:42:56;;;;;;;3.05;2.13;;;16.20;81.80;;;;;;5004076;28;20033;-73
2021/01/16 00:45:24;;;;;;;3.47;2.75;;;16.00;81.30;;;;;;5010230;28;20057;-70
2021/01/16 00:47:51;;;;;;;3.10;2.15;;;15.80;82.20;;;;;;5010844;28;20022;-70
2021/01/16 00:50:20;;;;;;;3.53;2.13;;;15.80;81.60;;;;;;5011802;28;20046;-74
2021/01/16 00:52:58;;;;;;;2.90;2.33;;;15.70;82.50;;;;;;5014307;28;20053;-71
2021/01/16 00:55:25;;;;;;;7.03;3.50;;;15.60;83.70;;;;;;4996787;28;20474;-76
2021/01/16 00:57:53;;;;;;;7.22;3.83;;;15.50;83.90;;;;;;4994085;28;20042;-71
2021/01/16 01:00:23;;;;;;;5.95;3.67;;;15.50;84.70;;;;;;4996367;28;20482;-73
2021/01/16 01:02:50;;;;;;;5.40;3.60;;;15.40;85.50;;;;;;5013751;28;20057;-73
2021/01/16 01:05:22;;;;;;;4.22;3.50;;;15.30;86.00;;;;;;4995779;28;20126;-72
2021/01/16 01:07:50;;;;;;;5.43;3.38;;;15.30;86.50;;;;;;5013923;28;20386;-73
2021/01/16 01:10:24;;;;;;;4.68;3.08;;;15.20;86.20;;;;;;5014216;28;20034;-72
2021/01/16 01:12:52;;;;;;;5.38;3.75;;;15.20;87.00;;;;;;5014293;28;20374;-75
2021/01/16 01:15:22;;;;;;;8.27;3.65;;;15.20;88.00;;;;;;5006202;28;20066;-73
2021/01/16 01:17:58;;;;;;;6.32;3.83;;;15.20;87.90;;;;;;5006945;28;20435;-74
2021/01/16 01:20:26;;;;;;;5.20;3.80;;;15.20;88.10;;;;;;5014101;28;20078;-71
2021/01/16 01:22:53;;;;;;;4.55;3.47;;;15.10;88.70;;;;;;4995222;28;20045;-71
2021/01/16 01:25:20;;;;;;;7.93;4.80;;;15.00;89.80;;;;;;5013714;28;20041;-75
2021/01/16 01:27:55;;;;;;;6.75;4.70;;;15.00;90.50;;;;;;5014259;28;20018;-73
2021/01/16 01:30:24;;;;;;;8.30;5.20;;;14.90;90.70;;;;;;5013755;28;20029;-73
2021/01/16 01:32:51;;;;;;;5.32;4.57;;;14.80;91.30;;;;;;5014099;28;20399;-72
2021/01/16 01:35:19;;;;;;;9.20;4.68;;;14.70;91.90;;;;;;5013425;28;20030;-72
2021/01/16 01:37:51;;;;;;;6.70;4.45;;;14.60;92.20;;;;;;4996003;28;20042;-72
2021/01/16 01:40:20;;;;;;;8.30;4.95;;;14.50;92.90;;;;;;5013897;28;20055;-73
2021/01/16 01:42:52;;;;;;;7.13;5.03;;;14.40;93.50;;;;;;5013999;28;20029;-75
2021/01/16 01:45:23;;;;;;;7.82;5.35;;;14.40;93.90;;;;;;4995015;28;20046;-71
2021/01/16 01:47:51;;;;;;;7.57;5.32;;;14.40;94.10;;;;;;5013809;28;20026;-74
2021/01/16 01:50:20;;;;;;;10.55;5.00;;;14.30;94.40;;;;;;5013756;28;20037;-73
2021/01/16 01:52:48;;;;;;;9.55;4.88;;;14.30;94.60;;;;;;5013783;28;20057;-75
2021/01/16 01:55:15;;;;;;;6.97;5.07;;;14.30;95.00;;;;;;5013497;28;20026;-75
2021/01/16 01:57:51;;;;;;;8.48;6.50;;;14.30;95.10;;;;;;5011888;28;20038;-75
2021/01/16 02:00:21;;;;;;;6.95;5.32;;;14.20;95.60;;;;;;4994996;28;20034;-72
2021/01/16 02:02:49;;;;;;;13.63;5.28;;;14.10;96.00;;;;;;5012483;28;20038;-72
2021/01/16 02:05:17;;;;;;;9.82;5.90;;;14.10;96.40;;;;;;5012555;28;20026;-73
2021/01/16 02:07:47;;;;;;;9.75;5.90;;;14.00;96.60;;;;;;5013090;28;20037;-71
2021/01/16 02:10:24;;;;;;;10.68;5.95;;;14.00;96.80;;;;;;5013308;28;20032;-75
2021/01/16 02:12:55;;;;;;;8.88;5.18;;;14.00;96.90;;;;;;5012183;28;20064;-73
2021/01/16 02:15:45;;;;;;;8.82;5.63;;;14.00;96.90;;;;;;5012657;28;20521;-73
2021/01/16 02:18:30;;;;;;;9.13;4.85;;;14.00;96.90;;;;;;5013075;28;20041;-73
2021/01/16 02:21:00;;;;;;;8.45;4.85;;;14.00;96.80;;;;;;5013513;28;20045;-75
2021/01/16 02:23:27;;;;;;;7.10;5.03;;;14.00;97.10;;;;;;4994857;28;20038;-73
2021/01/16 02:26:15;;;;;;;5.35;3.80;;;14.00;97.30;;;;;;5011777;28;20061;-72
2021/01/16 02:28:49;;;;;;;5.00;4.15;;;13.90;97.40;;;;;;5011706;28;20018;-71
2021/01/16 02:31:17;;;;;;;7.63;4.50;;;13.80;97.70;;;;;;5012631;28;20378;-70
2021/01/16 02:33:46;;;;;;;7.50;4.47;;;13.80;97.60;;;;;;5011835;28;20041;-72
2021/01/16 02:36:54;;;;;;;5.00;3.88;;;14.20;96.40;;;;;;5012070;28;20361;-69
2021/01/16 02:39:51;;;;;;;9.40;3.78;;;14.40;95.60;;;;;;5011519;28;20038;-70
2021/01/16 02:42:37;;;;;;;8.82;4.50;;;14.40;95.60;;;;;;5012301;28;20505;-68
2021/01/16 02:45:18;;;;;;;6.03;4.45;;;14.50;95.50;;;;;;5010932;28;20049;-69
2021/01/16 02:47:48;;;;;;;6.00;4.17;;;14.50;95.70;;;;;;5012627;28;20038;-68
2021/01/16 02:50:22;;;;;;;7.00;4.15;;;14.40;96.00;;;;;;5012130;28;20044;-69
2021/01/16 02:52:50;;;;;;;7.50;4.53;;;14.30;96.30;;;;;;5012187;28;20026;-71
2021/01/16 02:55:17;;;;;;;7.07;3.50;;;14.30;96.50;;;;;;5011996;28;20397;-72
2021/01/16 02:57:45;;;;;;;8.98;3.40;;;14.20;96.60;;;;;;5013387;28;20348;-74
2021/01/16 03:00:16;;;;;;;3.95;3.30;;;14.10;96.70;;;;;;5013051;28;20034;-74
2021/01/16 03:02:43;;;;;;;6.55;3.58;;;14.10;96.70;;;;;;5011853;28;20038;-71
2021/01/16 03:05:10;;;;;;;7.80;3.75;;;14.10;96.50;;;;;;5012010;28;20430;-70
2021/01/16 03:07:37;;;;;;;5.30;3.10;;;14.20;96.30;;;;;;5011772;28;20383;-74
2021/01/16 03:10:10;;;;;;;5.47;3.03;;;14.10;96.30;;;;;;5011971;28;20374;-70
2021/01/16 03:12:37;;;;;;;4.95;3.60;;;14.10;96.30;;;;;;5009879;28;20469;-73
2021/01/16 03:15:16;;;;;;;5.72;3.60;;;14.10;96.20;;;;;;5011147;28;20030;-69
2021/01/16 03:17:55;;;;;;;3.72;2.92;;;14.20;96.00;;;;;;5011402;28;20038;-70
2021/01/16 03:20:28;;;;;;;4.15;3.22;;;14.20;96.00;;;;;;4993608;28;20057;-71
2021/01/16 03:22:57;;;;;;;6.60;3.75;;;14.20;96.00;;;;;;4993546;28;20033;-73
2021/01/16 03:25:26;;;;;;;3.17;2.55;;;14.10;96.20;;;;;;5008004;28;20394;-73
2021/01/16 03:27:55;;;;;;;9.05;2.90;;;14.10;96.30;;;;;;5011754;28;20065;-72
2021/01/16 03:30:23;;;;;;;7.75;3.20;;;14.10;96.50;;;;;;5010291;28;20049;-75
2021/01/16 03:32:51;;;;;;;4.30;3.40;;;14.10;96.60;;;;;;4993115;28;20048;-72
2021/01/16 03:35:20;;;;;;;4.97;2.85;;;14.00;96.90;;;;;;5011759;28;20382;-74
2021/01/16 03:37:48;;;;;;;4.30;2.88;;;14.00;97.00;;;;;;5011902;28;20022;-73
2021/01/16 03:40:15;;;;;;;5.10;3.33;;;13.90;97.20;;;;;;5010083;28;20049;-74
2021/01/16 03:42:43;;;;;;;4.05;2.80;;;13.80;97.30;;;;;;5011122;28;20033;-74
2021/01/16 03:45:16;;;;;;;4.28;2.97;;;13.80;97.60;;;;;;5011485;28;20390;-74
2021/01/16 03:47:43;;;;;;;5.35;3.13;;;13.80;97.80;;;;;;5011952;28;20425;-74
2021/01/16 03:50:11;;;;;;;5.20;2.80;;;13.80;97.90;;;;;;5010918;28;20030;-74
2021/01/16 03:52:39;;;;;;;4.35;3.45;;;13.80;98.10;;;;;;5011582;28;20406;-73
2021/01/16 03:55:07;;;;;;;4.75;3.55;;;13.80;98.00;;;;;;4992848;28;20053;-74
2021/01/16 03:57:37;;;;;;;5.88;3.10;;;13.80;98.10;;;;;;5011436;28;20030;-73
2021/01/16 04:00:10;;;;;;;7.82;3.40;;;13.80;98.30;;;;;;5003519;28;20034;-72
2021/01/16 04:02:37;;;;;;;4.75;3.00;;;13.80;98.30;;;;;;5010304;28;20042;-72
2021/01/16 04:05:05;;;;;;;5.28;3.42;;;13.80;98.30;;;;;;5011434;28;20025;-73
2021/01/16 04:07:32;;;;;;;4.65;3.63;;;13.90;98.40;;;;;;5011062;28;20048;-74
2021/01/16 04:10:00;;;;;;;7.05;3.85;;;13.90;98.40;;;;;;5009180;28;20046;-71
2021/01/16 04:12:30;;;;;;;8.70;3.45;;;13.90;98.10;;;;;;5010975;28;20033;-72
2021/01/16 04:15:00;;;;;;;5.00;3.15;;;14.00;97.90;;;;;;5011425;28;20033;-70
2021/01/16 04:17:27;;;;;;;3.78;3.00;;;14.00;97.80;;;;;;5011175;28;20025;-71
2021/01/16 04:19:54;;;;;;;5.35;3.72;;;14.00;98.10;;;;;;4992046;28;20358;-69
2021/01/16 04:22:21;;;;;;;5.75;3.00;;;13.90;98.30;;;;;;5011640;28;20410;-70
2021/01/16 04:24:48;;;;;;;5.57;3.72;;;13.90;98.20;;;;;;4993965;28;20053;-70
2021/01/16 04:27:15;;;;;;;8.30;3.83;;;13.90;98.30;;;;;;5014548;28;20053;-71
2021/01/16 04:29:42;;;;;;;6.80;3.50;;;13.90;98.00;;;;;;5014456;28;20029;-71
2021/01/16 04:32:11;;;;;;;7.22;3.30;;;13.90;98.00;;;;;;5014464;28;20505;-72
2021/01/16 04:34:38;;;;;;;4.20;3.13;;;13.90;98.10;;;;;;5014789;28;20033;-72
2021/01/16 04:37:05;;;;;;;4.93;3.53;;;13.80;97.90;;;;;;5014783;28;20037;-71
2021/01/16 04:39:32;;;;;;;4.15;3.00;;;13.90;97.70;;;;;;4995923;28;20034;-71
2021/01/16 04:41:59;;;;;;;4.15;3.00;;;13.90;97.60;;;;;;5014489;28;20041;-70
2021/01/16 04:44:28;;;;;;;5.68;3.10;;;14.00;97.10;;;;;;4996245;28;20038;-69
2021/01/16 04:46:57;;;;;;;3.88;2.65;;;14.00;97.10;;;;;;5013146;28;20058;-71
2021/01/16 04:49:24;;;;;;;6.47;2.95;;;14.00;97.10;;;;;;5013855;28;20022;-70
2021/01/16 04:51:53;;;;;;;5.05;2.90;;;14.10;97.10;;;;;;5014616;28;20026;-72
2021/01/16 04:54:21;;;;;;;7.00;3.15;;;14.20;97.20;;;;;;5013267;28;20041;-72
2021/01/16 04:56:48;;;;;;;4.65;2.60;;;14.20;97.10;;;;;;5014391;28;20030;-72
2021/01/16 04:59:25;;;;;;;4.57;2.72;;;14.40;96.70;;;;;;5014201;28;20026;-70
2021/01/16 05:01:52;;;;;;;7.65;2.50;;;14.40;96.50;;;;;;5013530;28;20034;-71
2021/01/16 05:04:24;;;;;;;2.67;1.92;;;14.60;95.90;;;;;;5014022;28;20363;-70
2021/01/16 05:06:52;;;;;;;3.33;2.03;;;14.60;95.70;;;;;;5014554;28;20732;-71
2021/01/16 05:09:21;;;;;;;4.03;2.35;;;14.70;95.40;;;;;;5014349;28;20026;-72
2021/01/16 05:12:16;;;;;;;2.78;1.98;;;14.60;95.60;;;;;;5014292;28;20026;-72
2021/01/16 05:15:01;;;;;;;3.72;2.10;;;14.60;95.50;;;;;;5014510;28;20485;-72
2021/01/16 05:17:30;;;;;;;3.20;2.30;;;14.90;94.40;;;;;;5011514;28;20038;-72
2021/01/16 05:19:59;;;;;;;2.80;1.98;;;14.70;95.00;;;;;;5014097;28;20053;-73
2021/01/16 05:22:27;;;;;;;2.50;1.83;;;14.60;95.10;;;;;;5014111;28;20029;-72
2021/01/16 05:25:04;;;;;;;5.07;1.85;;;14.60;95.10;;;;;;5013180;28;20041;-72
2021/01/16 05:27:36;;;;;;;3.50;1.83;;;14.60;95.00;;;;;;5013197;28;20038;-73
2021/01/16 05:30:09;;;;;;;2.15;1.55;;;14.50;94.20;;;;;;5013037;28;20026;-72
2021/01/16 05:32:36;;;;;;;2.90;1.73;;;14.70;93.40;;;;;;5013646;28;20060;-72
2021/01/16 05:35:20;;;;;;;2.33;1.25;;;14.80;93.30;;;;;;5010067;28;20602;-72
2021/01/16 05:37:48;;;;;;;5.20;1.73;;;14.90;92.70;;;;;;4996655;28;20034;-72
2021/01/16 05:40:17;;;;;;;2.78;1.45;;;15.00;92.00;;;;;;4992926;28;20391;-71
2021/01/16 05:42:45;;;;;;;2.20;1.40;;;15.00;92.20;;;;;;4994705;28;20053;-71
2021/01/16 05:45:12;;;;;;;1.88;1.50;;;15.10;91.90;;;;;;4994650;28;20038;-71
2021/01/16 05:47:43;;;;;;;4.20;1.35;;;15.10;91.50;;;;;;5004962;28;20069;-73
2021/01/16 05:50:11;;;;;;;7.97;1.40;;;15.20;91.30;;;;;;5014202;28;20474;-70
2021/01/16 05:52:41;;;;;;;3.08;1.52;;;15.20;91.10;;;;;;5013967;28;20030;-71
2021/01/16 05:55:08;;;;;;;1.83;1.20;;;15.40;90.80;;;;;;5013077;28;20513;-70
2021/01/16 05:57:41;;;;;;;2.95;1.27;;;15.50;90.40;;;;;;5012816;28;20045;-70
2021/01/16 06:00:10;;;;;;;2.28;1.50;;;15.50;90.40;;;;;;5013794;28;20025;-71
2021/01/16 06:02:42;;;;;;;1.45;1.10;;;15.40;90.50;;;;;;5013877;28;20033;-72
2021/01/16 06:05:11;;;;;;;1.83;1.30;;;15.40;90.60;;;;;;5013622;28;20037;-71
2021/01/16 06:07:38;;;;;;;2.15;1.30;;;15.40;90.70;;;;;;5013268;28;20045;-71
2021/01/16 06:10:13;;;;;;;5.25;1.52;;;15.30;90.80;;;;;;5013118;28;20025;-72
2021/01/16 06:12:43;;;;;;;1.88;1.58;;;15.30;91.00;;;;;;5012501;28;20479;-72
2021/01/16 06:15:15;;;;;;;1.83;1.50;;;15.30;91.10;;;;;;5013506;28;20478;-73
2021/01/16 06:17:47;;;;;;;2.45;1.55;;;15.20;91.40;;;;;;5012214;28;20049;-73
2021/01/16 06:20:20;;;;;;;3.50;1.52;;;15.10;91.60;;;;;;5012934;28;20363;-71
2021/01/16 06:22:50;;;;;;;3.05;1.75;;;15.00;91.80;;;;;;5013299;28;20053;-73
2021/01/16 06:25:21;;;;;;;3.08;1.83;;;14.90;92.10;;;;;;5012299;28;20040;-73
2021/01/16 06:27:51;;;;;;;2.30;1.83;;;14.90;92.50;;;;;;4995425;28;20052;-73
2021/01/16 06:30:21;;;;;;;2.85;2.05;;;14.80;92.80;;;;;;5012736;28;20383;-72
2021/01/16 06:32:57;;;;;;;3.47;2.50;;;14.70;93.30;;;;;;5012090;28;20034;-72
2021/01/16 06:35:29;;;;;;;3.78;2.28;;;14.60;93.60;;;;;;5012943;28;20029;-73
2021/01/16 06:38:02;;;;;;;5.00;2.08;;;14.60;94.00;;;;;;5012759;28;20026;-72
2021/01/16 06:40:38;;;;;;;4.05;2.20;;;14.60;94.30;;;;;;5011186;28;20037;-70
2021/01/16 06:43:16;;;;;;;2.15;1.92;;;14.50;94.50;;;;;;5012787;28;20034;-73
2021/01/16 06:45:43;;;;;;;4.18;2.30;;;14.40;94.70;;;;;;5012596;28;20066;-72
2021/01/16 06:48:11;;;;;;;3.50;2.33;;;14.40;94.70;;;;;;5013058;28;20045;-75
2021/01/16 06:50:38;;;;;;;6.20;2.10;;;14.30;94.90;;;;;;5011965;28;20033;-78
2021/01/16 06:53:10;;;;;;;4.45;2.05;;;14.30;94.90;;;;;;5011610;28;20050;-80
2021/01/16 06:55:46;;;;;;;4.95;2.00;;;14.20;95.00;;;;;;5013119;28;20037;-79
2021/01/16 06:58:17;;;;;;;7.60;2.40;;;14.10;95.10;;;;;;4996316;28;20022;-76
2021/01/16 07:00:56;;;;;;;3.13;2.30;;;14.00;95.10;;;;;;5012109;28;20033;-78
2021/01/16 07:03:27;;;;;;;4.78;2.70;;;14.00;95.30;;;;;;5012891;28;20129;-76
2021/01/16 07:05:57;;;;;;;5.90;2.53;;;13.90;95.40;;;;;;5012536;28;20033;-73
2021/01/16 07:08:24;;;;;;;4.85;2.70;;;14.10;95.10;;;;;;4994395;28;20069;-77
2021/01/16 07:10:53;;;;;;;3.20;2.40;;;14.10;95.00;;;;;;5011843;28;20371;-76
2021/01/16 07:13:20;;;;;;;3.05;2.28;;;14.10;95.00;;;;;;5011942;28;20052;-77
2021/01/16 07:15:47;;;;;;;2.58;2.10;;;14.10;95.10;;;;;;5012459;28;20022;-75
2021/01/16 07:18:15;;;;;;;3.75;2.22;;;14.00;95.40;;;;;;5011187;28;20034;-76
2021/01/16 07:20:42;;;;;;;6.85;2.33;;;14.10;95.30;;;;;;5012358;28;20479;-74
2021/01/16 07:23:09;;;;;;;5.32;2.70;;;14.10;95.10;;;;;;5011316;28;20029;-76
2021/01/16 07:25:36;;;;;;;3.90;2.60;;;14.10;95.00;;;;;;5011815;28;20018;-78
2021/01/16 07:28:05;;;;;;;2.67;1.95;;;14.10;95.10;;;;;;4994435;28;20057;-74
2021/01/16 07:30:32;;;;;;;4.60;2.10;;;14.00;95.10;;;;;;5011302;28;20030;-75
2021/01/16 07:33:02;;;;;;;4.70;2.05;;;14.00;95.10;;;;;;5011677;28;20026;-76
2021/01/16 07:35:29;;;;;;;4.18;2.08;;;13.90;95.10;;;;;;5012097;28;20022;-77
2021/01/16 07:37:56;;;;;;;3.20;1.98;;;13.90;95.20;;;;;;5012215;28;20022;-77
2021/01/16 07:40:31;;;;;;;2.42;1.70;;;13.70;95.40;;;;;;4994043;28;20049;-77
2021/01/16 07:43:10;;;;;;;3.42;2.25;;;13.70;95.40;;;;;;4993426;28;20042;-77
2021/01/16 07:45:39;;;;;;;7.40;3.05;;;13.60;95.60;;;;;;5010734;28;20038;-76
2021/01/16 07:48:07;;;;;;;6.45;2.40;;;13.60;95.70;;;;;;5011402;28;20041;-75
2021/01/16 07:50:35;;;;;;;3.47;2.10;;;13.70;95.60;;;;;;4993951;28;20045;-76
2021/01/16 07:53:04;;;;;;;3.92;2.35;;;13.70;95.60;;;;;;5009751;28;20045;-75
2021/01/16 07:55:37;;;;;;;5.65;2.53;;;13.70;95.70;;;;;;5011877;28;20037;-76
2021/01/16 07:58:25;;;;;;;8.02;2.50;;;13.70;95.60;;;;;;5011233;28;20026;-76
2021/01/16 08:01:23;;;;;;;5.90;3.13;;;13.70;95.60;;;;;;5009302;28;20691;-76
2021/01/16 08:04:16;;;;;;;5.13;2.90;;;13.60;95.80;;;;;;5005715;28;20053;-76
2021/01/16 08:07:03;;;;;;;4.30;2.80;;;13.60;95.80;;;;;;5007271;28;20049;-76
2021/01/16 08:09:55;;;;;;;6.30;2.65;;;13.50;95.90;;;;;;5009297;28;20034;-75
2021/01/16 08:12:25;;;;;;;4.97;2.80;;;13.40;96.10;;;;;;5010647;28;20514;-74
2021/01/16 08:14:53;;;;;;;3.72;2.80;;;13.40;96.10;;;;;;5011569;28;20034;-75
2021/01/16 08:17:27;;;;;;;4.28;2.72;;;13.40;96.20;;;;;;5011662;28;20022;-75
2021/01/16 08:20:00;;;;;;;5.05;3.08;;;13.40;96.20;;;;;;5011439;28;20034;-75
2021/01/16 08:22:54;;;;;;;4.32;3.20;;;13.40;96.10;;;;;;5011229;28;20033;-75
2021/01/16 08:25:23;;;;;;;5.10;3.63;;;13.30;96.00;;;;;;5007508;28;20057;-77
2021/01/16 08:28:22;;;;;;;5.22;3.55;;;13.40;95.80;;;;;;5010673;28;20034;-75
2021/01/16 08:30:50;;;;;;;7.55;3.90;;;13.40;95.80;;;;;;5008129;28;20034;-76
2021/01/16 08:33:17;;;;;;;7.30;4.50;;;13.40;95.80;;;;;;5011711;28;20034;-75
2021/01/16 08:35:48;;;;;;;5.10;3.28;;;13.40;95.70;;;;;;5011382;28;20034;-76
2021/01/16 08:38:17;;;;;;;3.72;3.13;;;13.50;95.60;;;;;;5009653;28;20038;-73
2021/01/16 08:41:05;;;;;;;6.78;3.90;;;13.60;95.40;;;;;;5010974;28;20041;-76
2021/01/16 08:43:43;;;;;;;4.78;3.35;;;13.70;95.20;;;;;;5010509;28;20038;-75
2021/01/16 08:46:17;;;;;;;5.28;3.42;;;13.70;95.30;;;;;;4971642;28;20046;-74
2021/01/16 08:49:14;;;;;;;8.82;3.83;;;13.80;95.10;;;;;;4972473;28;20392;-74
2021/01/16 08:51:44;;;;;;;6.10;3.55;;;13.80;95.20;;;;;;4972025;28;20054;-74
2021/01/16 08:54:22;;;;;;;4.32;3.55;;;13.70;95.20;;;;;;4972286;28;20321;-75
2021/01/16 08:56:51;;;;;;;5.20;3.65;;;13.80;95.10;;;;;;4971721;28;20042;-76
2021/01/16 08:59:30;;;;;;;5.97;3.25;;;13.70;95.20;;;;;;4972034;28;20030;-75
2021/01/16 09:02:18;;;;;;;5.30;3.40;;;13.70;95.20;;;;;;4971273;28;20039;-72
2021/01/16 09:04:45;;;;;;;5.13;3.38;;;13.80;95.10;;;;;;4972162;28;20037;-74
2021/01/16 09:07:24;;;;;;;5.93;3.15;;;14.00;94.80;;;;;;4971348;28;20039;-73
2021/01/16 09:10:01;;;;;;;5.63;3.35;;;14.10;94.60;;;;;;4972090;28;20038;-73
2021/01/16 09:12:36;;;;;;;4.90;2.78;;;14.00;94.60;;;;;;4973940;28;20031;-75
2021/01/16 09:15:28;;;;;;;6.03;3.60;;;14.00;94.60;;;;;;4975579;28;20027;-74
2021/01/16 09:18:15;;;;;;;7.25;2.97;;;13.80;94.90;;;;;;4968539;28;20046;-75
2021/01/16 09:20:54;;;;;;;3.78;2.70;;;13.80;95.00;;;;;;4974243;28;20391;-76
2021/01/16 09:23:28;;;;;;;7.07;3.17;;;13.70;95.10;;;;;;4973902;28;20042;-75
2021/01/16 09:26:04;;;;;;;5.60;3.00;;;13.60;95.20;;;;;;4975362;28;20050;-76
2021/01/16 09:28:54;;;;;;;4.03;2.70;;;13.60;95.20;;;;;;4974574;28;20042;-75
2021/01/16 09:31:41;;;;;;;4.13;2.53;;;13.40;95.50;;;;;;4955957;28;20031;-75
2021/01/16 09:34:14;;;;;;;2.47;1.90;;;13.50;94.90;;;;;;4970499;28;20037;-74
2021/01/16 09:36:42;;;;;;;2.78;1.95;;;13.60;94.60;;;;;;4975179;28;20031;-74
2021/01/16 09:39:30;;;;;;;2.78;1.70;;;13.70;94.40;;;;;;4973829;28;20050;-76
2021/01/16 09:42:18;;;;;;;2.38;1.80;;;13.80;94.30;;;;;;4973039;28;20035;-75
2021/01/16 09:44:52;;;;;;;3.22;1.90;;;13.90;94.10;;;;;;4990745;28;20057;-76
2021/01/16 09:47:28;;;;;;;2.38;1.70;;;14.00;93.80;;;;;;5012475;28;20060;-76
2021/01/16 09:50:02;;;;;;;2.63;1.70;;;14.00;94.10;;;;;;5013474;28;20030;-76
2021/01/16 09:52:30;;;;;;;2.42;1.52;;;14.00;93.90;;;;;;4995290;28;20049;-76
2021/01/16 09:54:57;;;;;;;3.22;1.52;;;14.00;93.80;;;;;;5012990;28;20478;-76
2021/01/16 09:57:38;;;;;;;4.28;1.58;;;14.00;93.80;;;;;;5013093;28;20053;-76
2021/01/16 10:00:17;;;;;;;2.83;1.67;;;14.10;93.90;;;;;;5012832;28;20056;-76
2021/01/16 10:02:45;;;;;;;2.15;1.65;;;14.10;93.90;;;;;;5012870;28;20042;-77
2021/01/16 10:05:27;;;;;;;1.80;1.50;;;14.00;94.00;;;;;;4996287;28;20026;-79
2021/01/16 10:07:55;;;;;;;2.17;1.55;;;14.00;93.90;;;;;;4992025;28;20046;-77
2021/01/16 10:10:22;;;;;;;6.38;2.25;;;13.90;93.70;;;;;;5013319;28;20363;-79
2021/01/16 10:12:55;;;;;;;4.28;1.85;;;14.00;93.90;;;;;;5011764;28;20081;-77
2021/01/16 10:15:27;;;;;;;2.17;1.30;;;14.00;93.90;;;;;;5013067;28;20022;-76
2021/01/16 10:17:56;;;;;;;2.92;1.75;;;14.00;93.70;;;;;;5012495;28;20065;-75
2021/01/16 10:20:33;;;;;;;4.22;1.75;;;14.00;93.80;;;;;;5013360;28;20026;-76
2021/01/16 10:23:05;;;;;;;2.95;1.67;;;14.00;93.60;;;;;;5010878;28;20110;-76
2021/01/16 10:25:42;;;;;;;3.53;1.63;;;13.90;93.90;;;;;;5011629;28;20517;-77
2021/01/16 10:28:25;;;;;;;3.92;1.75;;;14.10;93.70;;;;;;5010705;28;20041;-77
2021/01/16 10:30:58;;;;;;;2.40;1.52;;;14.00;94.00;;;;;;5013031;28;20030;-76
2021/01/16 10:33:34;;;;;;;2.17;1.50;;;13.90;94.30;;;;;;5012789;28;20409;-77
2021/01/16 10:36:18;;;;;;;3.72;1.83;;;13.80;94.50;;;;;;5011662;28;20048;-76
2021/01/16 10:38:49;;;;;;;2.55;1.50;;;13.90;94.70;;;;;;5012675;28;20041;-76
2021/01/16 10:41:20;;;;;;;;;;;13.90;95.10;;;;;;4994965;28;20034;-76
2021/01/16 10:43:58;;;;;;;2.60;1.80;;;14.00;95.30;;;;;;5011134;28;19913;-75
2021/01/16 10:46:32;;;;;;;2.33;1.38;;;14.00;95.20;;;;;;5011506;28;20081;-76
2021/01/16 10:49:12;;;;;;;1.60;1.20;;;14.00;95.50;;;;;;5012106;28;20490;-77
2021/01/16 10:52:06;;;;;;;1.95;1.00;;;14.00;95.80;;;;;;5011563;28;20038;-77
2021/01/16 10:54:33;;;;;;;3.90;1.40;;;14.10;95.80;;;;;;4988954;28;20046;-76
2021/01/16 10:57:09;;;;;;;4.40;1.15;;;14.20;95.70;;;;;;5005876;28;20022;-76
2021/01/16 10:59:38;;;;;;;2.05;1.25;;;14.20;96.00;;;;;;5012333;28;20359;-76
2021/01/16 11:02:13;;;;;;;1.85;1.08;;;14.30;95.70;;;;;;5012361;28;20037;-76
2021/01/16 11:04:48;;;;;;;1.83;0.90;;;14.30;95.80;;;;;;5011356;28;20045;-76
2021/01/16 11:07:29;;;;;;;2.40;1.35;;;14.30;95.90;;;;;;5011375;28;20083;-76
2021/01/16 11:10:12;;;;;;;6.88;1.50;;;14.30;95.90;;;;;;5010980;28;20045;-76
2021/01/16 11:12:40;;;;;;;3.88;1.17;;;14.30;95.80;;;;;;5011475;28;20026;-76
2021/01/16 11:15:30;;;;;;;5.50;1.65;;;14.40;95.40;;;;;;5012639;28;20044;-76
2021/01/16 11:18:01;;;;;;;2.33;1.02;;;14.50;95.30;;;;;;5012036;28;20034;-77
2021/01/16 11:20:33;;;;;;;4.28;1.38;;;14.50;95.80;;;;;;5011492;28;20382;-77
2021/01/16 11:23:06;;;;;;;2.05;1.17;;;14.40;95.70;;;;;;5011519;28;20056;-76
2021/01/16 11:25:47;;;;;;;1.70;0.90;;;14.30;96.10;;;;;;5012330;28;20489;-76
2021/01/16 11:28:19;;;;;;;;;;;14.30;96.20;;;;;;5011562;28;20379;-76
2021/01/16 11:30:50;;;;;;;4.13;1.17;;;14.30;96.10;;;;;;5012028;28;19929;-76
2021/01/16 11:33:25;;;;;;;2.03;1.05;;;14.30;96.10;;;;;;5010339;28;20041;-76
2021/01/16 11:36:04;;;;;;;2.15;0.82;;;14.30;95.90;;;;;;5010438;28;20080;-77
2021/01/16 11:38:45;;;;;;;1.33;1.00;;;14.30;95.90;;;;;;5012139;28;20032;-76
2021/01/16 11:41:13;;;;;;;;;;;14.30;95.60;;;;;;5011578;28;20140;-76
2021/01/16 11:43:41;;;;;;;1.95;1.23;;;14.40;95.60;;;;;;5011148;28;20277;-76
2021/01/16 11:46:11;;;;;;;2.28;1.30;;;14.30;95.60;;;;;;5011381;28;20050;-77
2021/01/16 11:48:39;;;;;;;1.80;1.13;;;14.30;95.90;;;;;;5011758;28;20033;-78
2021/01/16 11:51:15;;;;;;;2.60;1.38;;;14.30;95.90;;;;;;5010943;28;20042;-77
2021/01/16 11:53:49;;;;;;;2.47;1.20;;;14.30;96.10;;;;;;5011591;28;20379;-75
2021/01/16 11:56:20;;;;;;;1.80;1.05;;;14.30;96.50;;;;;;5012146;28;20359;-75
2021/01/16 11:58:49;;;;;;;3.33;1.13;;;14.20;96.30;;;;;;5011392;28;20030;-78
2021/01/16 12:01:17;;;;;;;1.63;1.30;;;14.20;96.40;;;;;;5011389;28;20278;-78
2021/01/16 12:03:45;;;;;;;2.67;1.20;;;14.10;96.50;;;;;;5011378;28;20101;-78
2021/01/16 12:06:13;;;;;;;1.67;1.17;;;14.10;96.60;;;;;;5011206;28;20038;-78
2021/01/16 12:08:44;;;;;;;2.15;1.30;;;14.20;96.60;;;;;;5010266;28;20108;-78
2021/01/16 12:11:12;;;;;;;3.42;1.48;;;14.10;96.60;;;;;;5010217;28;20471;-75
2021/01/16 12:13:50;;;;;;;2.35;1.52;;;14.00;96.90;;;;;;5010433;28;20042;-75
2021/01/16 12:16:18;;;;;;;2.50;1.27;;;14.00;97.00;;;;;;4991734;28;20042;-76
2021/01/16 12:18:45;;;;;;;2.97;1.85;;;14.00;97.00;;;;;;5010135;28;20034;-75
2021/01/16 12:21:13;;;;;;;1.63;1.08;;;14.00;96.70;;;;;;5010594;28;20037;-76
2021/01/16 12:23:46;;;;;;;3.28;1.40;;;13.90;96.80;;;;;;4988994;28;20521;-74
2021/01/16 12:26:15;;;;;;;3.22;1.20;;;13.90;96.90;;;;;;5008156;28;20033;-72
2021/01/16 12:28:52;;;;;;;2.45;1.30;;;13.80;97.10;;;;;;5010023;28;20054;-77
2021/01/16 12:31:24;;;;;;;3.90;1.50;;;13.80;97.20;;;;;;5009846;28;20053;-77
2021/01/16 12:33:52;;;;;;;3.03;1.80;;;13.70;97.40;;;;;;5002148;28;20030;-75
2021/01/16 12:36:20;;;;;;;2.10;1.48;;;13.70;97.30;;;;;;5011241;28;20030;-75
2021/01/16 12:38:51;;;;;;;2.97;1.42;;;13.70;97.40;;;;;;4989401;28;20045;-75
2021/01/16 12:41:25;;;;;;;2.13;1.73;;;13.70;97.80;;;;;;5010479;28;20045;-76
2021/01/16 12:43:53;;;;;;;3.75;1.40;;;13.80;98.00;;;;;;5010377;28;20038;-78
2021/01/16 12:46:22;;;;;;;4.50;1.70;;;13.50;98.50;;;;;;5013388;28;20498;-76
2021/01/16 12:48:50;;;;;;;3.45;2.60;;;13.40;98.30;;;;;;5014763;28;20053;-75
2021/01/16 12:51:18;;;;;;;2.13;1.13;;;13.40;98.50;;;;;;5014226;28;20041;-75
2021/01/16 12:53:47;;;;;;;2.08;0.90;;;13.70;98.80;;;;;;5014280;28;20390;-76
2021/01/16 12:56:23;;;;;;;1.52;1.10;;;13.80;98.60;;;;;;5014334;28;20042;-74
2021/01/16 12:58:51;;;;;;;3.47;0.80;;;13.80;98.50;;;;;;4998424;28;20379;-74
2021/01/16 13:01:21;;;;;;;2.55;1.20;;;13.80;98.50;;;;;;5014141;28;20477;-75
2021/01/16 13:03:48;;;;;;;3.45;1.60;;;13.80;98.10;;;;;;5014350;28;20037;-76
2021/01/16 13:06:17;;;;;;;3.45;1.30;;;13.80;98.00;;;;;;4996933;28;20030;-76
2021/01/16 13:08:44;;;;;;;1.42;1.30;;;13.70;97.60;;;;;;5013645;28;20451;-75
2021/01/16 13:11:15;;;;;;;2.58;2.10;;;13.70;98.20;;;;;;4996286;28;20052;-74
2021/01/16 13:13:55;;;;;;;2.25;1.42;;;13.60;98.10;;;;;;5013426;28;20042;-76